createdAt,value
2023-07-24T00:02:01.706Z,17.55
2023-07-24T00:05:05.189Z,17.45
2023-07-24T00:08:09.437Z,17.31
2023-07-24T00:11:11.985Z,17.38
2023-07-24T00:14:22.879Z,17.36
2023-07-24T00:17:26.044Z,17.16
2023-07-24T00:20:28.930Z,17.23
2023-07-24T00:23:36.158Z,17.19
2023-07-24T00:26:39.274Z,17.04
2023-07-24T00:29:45.058Z,17.32
2023-07-24T00:32:49.141Z,17.35
2023-07-24T00:35:56.782Z,17.45
2023-07-24T00:38:59.319Z,17.63
2023-07-24T00:42:02.891Z,17.71
2023-07-24T00:45:05.992Z,17.69
2023-07-24T00:48:08.790Z,17.85
2023-07-24T00:51:14.608Z,17.83
2023-07-24T00:54:18.639Z,17.89
2023-07-24T00:57:21.435Z,17.70
2023-07-24T01:00:27.784Z,17.71
2023-07-24T01:03:36.944Z,17.69
2023-07-24T01:06:40.063Z,17.56
2023-07-24T01:09:42.564Z,17.70
2023-07-24T01:13:01.388Z,17.64
2023-07-24T01:16:14.106Z,17.83
2023-07-24T01:19:48.939Z,17.99
2023-07-24T01:23:32.951Z,17.95
2023-07-24T01:26:35.730Z,17.79
2023-07-24T01:29:38.146Z,17.68
2023-07-24T01:32:41.008Z,17.68
2023-07-24T01:35:45.394Z,17.74
2023-07-24T01:38:51.406Z,17.58
2023-07-24T01:41:54.510Z,17.59
2023-07-24T01:44:57.317Z,17.63
2023-07-24T01:48:00.658Z,17.42
2023-07-24T01:51:04.607Z,17.47
2023-07-24T01:54:10.005Z,17.36
2023-07-24T01:57:12.531Z,17.31
2023-07-24T02:00:17.046Z,17.29
2023-07-24T02:03:19.650Z,17.23
2023-07-24T02:06:23.191Z,17.08
2023-07-24T02:09:25.795Z,17.08
2023-07-24T02:12:28.264Z,16.89
2023-07-24T02:15:31.316Z,16.80
2023-07-24T02:18:33.759Z,16.89
2023-07-24T02:21:36.155Z,16.92
2023-07-24T02:24:38.617Z,16.65
2023-07-24T02:27:41.094Z,16.91
2023-07-24T02:30:43.497Z,16.75
2023-07-24T02:33:46.044Z,16.89
2023-07-24T02:36:50.334Z,16.65
2023-07-24T02:39:54.469Z,16.84
2023-07-24T02:42:56.850Z,16.63
2023-07-24T02:46:05.373Z,16.61
2023-07-24T02:49:09.073Z,16.56
2023-07-24T02:52:12.053Z,16.45
2023-07-24T02:55:15.053Z,16.54
2023-07-24T02:58:17.934Z,16.55
2023-07-24T03:01:20.473Z,16.94
2023-07-24T03:04:22.980Z,17.22
2023-07-24T03:07:26.307Z,17.23
2023-07-24T03:10:28.848Z,17.32
2023-07-24T03:13:31.598Z,17.48
2023-07-24T03:16:34.152Z,17.70
2023-07-24T03:19:36.533Z,17.62
2023-07-24T03:22:38.901Z,17.79
2023-07-24T03:25:43.642Z,17.99
2023-07-24T03:28:46.623Z,18.20
2023-07-24T03:31:49.510Z,18.06
2023-07-24T03:34:52.191Z,18.36
2023-07-24T03:37:54.666Z,18.33
2023-07-24T03:40:57.022Z,18.32
2023-07-24T03:43:59.644Z,18.50
2023-07-24T03:47:02.485Z,18.49
2023-07-24T03:50:05.410Z,18.60
2023-07-24T03:53:07.789Z,18.61
2023-07-24T03:56:13.078Z,18.55
2023-07-24T03:59:16.297Z,18.67
2023-07-24T04:02:20.145Z,18.51
2023-07-24T04:05:22.601Z,18.64
2023-07-24T04:08:25.611Z,18.72
2023-07-24T04:11:28.081Z,18.79
2023-07-24T04:14:30.770Z,18.96
2023-07-24T04:17:35.291Z,19.32
2023-07-24T04:20:38.506Z,19.27
2023-07-24T04:23:44.418Z,19.57
2023-07-24T04:26:47.577Z,19.70
2023-07-24T04:29:50.035Z,19.84
2023-07-24T04:32:52.453Z,19.95
2023-07-24T04:35:57.716Z,20.28
2023-07-24T04:39:00.103Z,20.10
2023-07-24T04:42:02.546Z,20.43
2023-07-24T04:45:05.346Z,20.55
2023-07-24T04:48:07.788Z,20.64
2023-07-24T04:51:10.788Z,21.00
2023-07-24T04:54:13.304Z,21.09
2023-07-24T04:57:15.724Z,21.26
2023-07-24T05:00:18.099Z,21.05
2023-07-24T05:03:21.207Z,21.15
2023-07-24T05:06:26.286Z,20.91
2023-07-24T05:09:28.678Z,20.90
2023-07-24T05:12:31.483Z,21.13
2023-07-24T05:15:33.990Z,20.88
2023-07-24T05:18:40.466Z,21.32
2023-07-24T05:21:49.529Z,21.04
2023-07-24T05:24:52.506Z,21.13
2023-07-24T05:27:54.888Z,20.99
2023-07-24T05:31:02.272Z,21.02
2023-07-24T05:34:04.879Z,21.27
2023-07-24T05:37:07.280Z,21.50
2023-07-24T05:40:10.322Z,21.70
2023-07-24T05:43:12.792Z,21.94
2023-07-24T05:46:15.250Z,21.91
2023-07-24T05:49:18.460Z,22.23
2023-07-24T05:52:21.117Z,22.18
2023-07-24T05:55:24.571Z,22.15
2023-07-24T05:58:27.626Z,22.39
2023-07-24T06:01:30.240Z,22.34
2023-07-24T06:04:32.841Z,22.46
2023-07-24T06:07:35.554Z,23.01
2023-07-24T06:10:38.747Z,23.56
2023-07-24T06:13:41.178Z,24.43
2023-07-24T06:16:43.615Z,25.12
2023-07-24T06:19:46.260Z,25.74
2023-07-24T06:22:48.779Z,26.40
2023-07-24T06:25:52.865Z,26.95
2023-07-24T06:28:55.267Z,26.43
2023-07-24T06:31:57.710Z,26.33
2023-07-24T06:35:00.096Z,26.12
2023-07-24T06:38:02.529Z,26.85
2023-07-24T06:41:05.202Z,28.02
2023-07-24T06:44:07.916Z,27.88
2023-07-24T06:47:12.169Z,28.88
2023-07-24T06:50:15.093Z,28.46
2023-07-24T06:53:18.029Z,28.87
2023-07-24T06:56:23.407Z,28.53
2023-07-24T06:59:25.968Z,29.71
2023-07-24T07:02:34.076Z,29.89
2023-07-24T07:05:37.418Z,30.21
2023-07-24T07:08:41.390Z,29.99
2023-07-24T07:11:44.537Z,30.47
2023-07-24T07:14:47.272Z,30.66
2023-07-24T07:17:50.525Z,30.50
2023-07-24T07:20:54.876Z,30.94
2023-07-24T07:23:57.552Z,31.21
2023-07-24T07:27:01.108Z,31.56
2023-07-24T07:30:06.074Z,32.02
2023-07-24T07:33:08.855Z,32.52
2023-07-24T07:36:12.374Z,32.97
2023-07-24T07:39:14.874Z,32.57
2023-07-24T07:42:18.720Z,33.18
2023-07-24T07:45:22.334Z,33.68
2023-07-24T07:48:26.822Z,33.67
2023-07-24T07:51:34.718Z,34.34
2023-07-24T07:54:37.227Z,34.33
2023-07-24T07:57:39.870Z,33.83
2023-07-24T08:00:42.484Z,33.80
2023-07-24T08:03:45.168Z,33.77
2023-07-24T08:06:48.582Z,34.35
2023-07-24T08:10:00.407Z,34.64
2023-07-24T08:13:02.757Z,34.57
2023-07-24T08:16:05.412Z,35.44
2023-07-24T08:19:08.022Z,34.52
2023-07-24T08:22:11.442Z,34.96
2023-07-24T08:25:15.480Z,33.68
2023-07-24T08:28:19.446Z,33.87
2023-07-24T08:31:23.200Z,34.66
2023-07-24T08:34:26.355Z,33.85
2023-07-24T08:37:29.070Z,34.32
2023-07-24T08:40:33.054Z,34.35
2023-07-24T08:43:37.555Z,34.63
2023-07-24T08:46:42.554Z,34.52
2023-07-24T08:49:48.281Z,33.41
2023-07-24T08:52:50.806Z,33.56
2023-07-24T08:55:55.833Z,33.74
2023-07-24T08:58:58.412Z,33.95
2023-07-24T09:02:00.877Z,33.92
2023-07-24T09:05:04.663Z,34.39
2023-07-24T09:08:08.512Z,34.61
2023-07-24T09:11:15.073Z,33.81
2023-07-24T09:14:32.302Z,33.67
2023-07-24T09:17:35.364Z,34.47
2023-07-24T09:20:43.462Z,34.62
2023-07-24T09:23:46.484Z,34.76
2023-07-24T09:26:58.491Z,34.77
2023-07-24T09:30:02.815Z,35.32
2023-07-24T09:33:06.165Z,35.01
2023-07-24T09:36:10.406Z,35.19
2023-07-24T09:39:13.088Z,34.72
2023-07-24T09:42:17.666Z,35.00
2023-07-24T09:45:23.422Z,35.53
2023-07-24T09:51:33.667Z,35.14
2023-07-24T09:54:47.261Z,34.36
2023-07-24T09:57:54.137Z,34.44
2023-07-24T10:00:58.038Z,33.84
2023-07-24T10:04:02.330Z,33.11
2023-07-24T10:07:08.247Z,34.58
2023-07-24T10:10:11.139Z,35.19
2023-07-24T10:13:16.025Z,34.93
2023-07-24T10:16:18.477Z,33.91
2023-07-24T10:19:22.051Z,34.93
2023-07-24T10:22:26.811Z,33.10
2023-07-24T10:25:37.403Z,35.37
2023-07-24T10:28:42.802Z,35.52
2023-07-24T10:31:54.383Z,34.50
2023-07-24T10:34:59.112Z,35.05
2023-07-24T10:38:03.871Z,36.39
2023-07-24T10:41:09.298Z,34.11
2023-07-24T10:44:12.429Z,35.00
2023-07-24T10:47:17.222Z,35.43
2023-07-24T10:50:19.847Z,35.44
2023-07-24T10:53:23.885Z,36.97
2023-07-24T10:56:26.812Z,37.07
2023-07-24T10:59:41.622Z,36.52
2023-07-24T11:02:44.249Z,34.97
2023-07-24T11:05:48.457Z,36.27
2023-07-24T11:08:58.286Z,35.44
2023-07-24T11:12:14.050Z,35.44
2023-07-24T11:15:17.480Z,35.50
2023-07-24T11:18:27.950Z,34.89
2023-07-24T11:21:37.580Z,36.13
2023-07-24T11:24:49.729Z,36.11
2023-07-24T11:27:52.546Z,35.26
2023-07-24T11:30:55.135Z,35.87
2023-07-24T11:33:57.753Z,36.23
2023-07-24T11:37:01.887Z,35.70
2023-07-24T11:40:09.963Z,37.26
2023-07-24T11:43:20.896Z,36.43
2023-07-24T11:46:26.697Z,35.61
2023-07-24T11:49:34.246Z,35.98
2023-07-24T11:52:44.750Z,35.40
2023-07-24T11:55:47.194Z,36.48
2023-07-24T11:58:50.002Z,35.87
2023-07-24T12:01:53.015Z,35.04
2023-07-24T12:05:02.214Z,35.32
2023-07-24T12:08:05.338Z,35.34
2023-07-24T12:11:17.776Z,35.44
2023-07-24T12:14:20.557Z,35.33
2023-07-24T12:17:23.901Z,35.92
2023-07-24T12:20:26.602Z,36.33
2023-07-24T12:23:29.070Z,35.64
2023-07-24T12:26:35.474Z,35.72
2023-07-24T12:29:38.266Z,35.61
2023-07-24T12:32:40.942Z,35.06
2023-07-24T12:35:43.507Z,34.59
2023-07-24T12:38:49.768Z,34.26
2023-07-24T12:41:52.588Z,35.26
2023-07-24T12:44:58.988Z,35.12
2023-07-24T12:48:01.815Z,35.45
2023-07-24T12:51:04.480Z,36.29
2023-07-24T12:54:13.130Z,34.84
2023-07-24T12:57:30.576Z,35.07
2023-07-24T13:00:33.482Z,35.79
2023-07-24T13:03:39.574Z,35.91
2023-07-24T13:06:42.354Z,35.77
2023-07-24T13:09:45.745Z,35.97
2023-07-24T13:12:48.705Z,35.25
2023-07-24T13:15:52.022Z,34.95
2023-07-24T13:18:54.961Z,34.19
2023-07-24T13:21:58.892Z,34.36
2023-07-24T13:25:02.185Z,34.80
2023-07-24T13:28:04.941Z,34.92
2023-07-24T13:31:21.765Z,34.86
2023-07-24T13:34:25.671Z,34.90
2023-07-24T13:37:31.359Z,35.18
2023-07-24T13:40:34.308Z,34.61
2023-07-24T13:43:37.206Z,34.34
2023-07-24T13:46:41.282Z,34.66
2023-07-24T13:49:44.288Z,33.86
2023-07-24T13:52:47.260Z,33.85
2023-07-24T13:55:49.997Z,34.18
2023-07-24T13:58:52.626Z,34.26
2023-07-24T14:01:55.856Z,33.87
2023-07-24T14:04:58.305Z,33.83
2023-07-24T14:08:01.275Z,33.71
2023-07-24T14:11:04.147Z,33.71
2023-07-24T14:14:07.014Z,33.30
2023-07-24T14:17:09.544Z,33.88
2023-07-24T14:20:12.306Z,33.39
2023-07-24T14:23:14.782Z,32.87
2023-07-24T14:26:17.281Z,32.82
2023-07-24T14:29:20.133Z,32.80
2023-07-24T14:32:23.232Z,32.98
2023-07-24T14:35:26.664Z,33.14
2023-07-24T14:38:31.583Z,33.53
2023-07-24T14:41:34.037Z,32.99
2023-07-24T14:44:36.388Z,32.76
2023-07-24T14:47:38.931Z,32.47
2023-07-24T14:50:41.650Z,31.87
2023-07-24T14:53:44.019Z,31.83
2023-07-24T14:56:55.581Z,32.13
2023-07-24T15:00:03.361Z,32.48
2023-07-24T15:03:05.856Z,32.33
2023-07-24T15:06:08.906Z,32.34
2023-07-24T15:09:12.586Z,32.13
2023-07-24T15:12:15.157Z,31.97
2023-07-24T15:15:17.752Z,31.93
2023-07-24T15:18:23.360Z,31.96
2023-07-24T15:21:26.884Z,31.90
2023-07-24T15:24:29.545Z,31.82
2023-07-24T15:27:32.006Z,31.68
2023-07-24T15:30:34.743Z,31.72
2023-07-24T15:33:37.154Z,31.62
2023-07-24T15:36:39.916Z,31.53
2023-07-24T15:39:42.874Z,31.71
2023-07-24T15:42:47.572Z,31.49
2023-07-24T15:45:51.887Z,31.63
2023-07-24T15:48:54.504Z,31.86
2023-07-24T15:51:57.114Z,31.78
2023-07-24T15:55:01.700Z,31.69
2023-07-24T15:58:05.182Z,31.56
2023-07-24T16:01:08.830Z,31.48
2023-07-24T16:04:11.873Z,31.31
2023-07-24T16:07:14.756Z,31.30
2023-07-24T16:10:20.664Z,31.41
2023-07-24T16:13:29.139Z,31.33
2023-07-24T16:16:32.982Z,31.13
2023-07-24T16:19:35.575Z,31.15
2023-07-24T16:22:41.009Z,31.12
2023-07-24T16:25:43.474Z,31.01
2023-07-24T16:28:45.885Z,31.05
2023-07-24T16:31:48.498Z,30.81
2023-07-24T16:34:52.353Z,30.74
2023-07-24T16:37:56.683Z,30.77
2023-07-24T16:41:00.111Z,30.60
2023-07-24T16:44:03.506Z,30.49
2023-07-24T16:50:14.095Z,30.42
2023-07-24T16:53:19.358Z,30.35
2023-07-24T16:56:22.125Z,30.21
2023-07-24T16:59:25.327Z,30.09
2023-07-24T17:02:28.915Z,30.05
2023-07-24T17:05:31.861Z,30.02
2023-07-24T17:08:34.529Z,29.76
2023-07-24T17:11:40.782Z,29.66
2023-07-24T17:14:44.321Z,29.66
2023-07-24T17:17:47.594Z,29.67
2023-07-24T17:20:51.721Z,29.61
2023-07-24T17:23:54.273Z,29.27
2023-07-24T17:26:57.032Z,29.42
2023-07-24T17:30:00.741Z,29.35
2023-07-24T17:33:03.475Z,29.27
2023-07-24T17:36:08.462Z,29.12
2023-07-24T17:39:11.226Z,29.17
2023-07-24T17:42:16.801Z,28.97
2023-07-24T17:45:22.448Z,28.88
2023-07-24T17:48:25.224Z,28.84
2023-07-24T17:51:27.973Z,28.69
2023-07-24T17:54:31.455Z,28.56
2023-07-24T17:57:35.134Z,28.39
2023-07-24T18:00:41.734Z,28.41
2023-07-24T18:03:44.720Z,28.38
2023-07-24T18:06:48.388Z,28.37
2023-07-24T18:09:50.795Z,28.26
2023-07-24T18:12:57.455Z,28.00
2023-07-24T18:16:00.169Z,28.15
2023-07-24T18:19:08.016Z,28.12
2023-07-24T18:22:11.380Z,28.00
2023-07-24T18:25:13.807Z,27.84
2023-07-24T18:28:17.376Z,27.91
2023-07-24T18:31:21.024Z,27.91
2023-07-24T18:34:24.284Z,27.85
2023-07-24T18:37:27.218Z,27.85
2023-07-24T18:40:29.948Z,27.67
2023-07-24T18:43:32.383Z,27.70
2023-07-24T18:46:35.542Z,27.66
2023-07-24T18:49:38.723Z,27.57
2023-07-24T18:52:41.440Z,27.55
2023-07-24T18:55:45.847Z,27.67
2023-07-24T18:58:50.480Z,27.66
2023-07-24T19:01:53.241Z,27.61
2023-07-24T19:04:55.688Z,27.64
2023-07-24T19:08:01.398Z,27.56
2023-07-24T19:11:05.014Z,27.47
2023-07-24T19:14:07.870Z,27.18
2023-07-24T19:17:16.313Z,27.33
2023-07-24T19:20:22.290Z,27.43
2023-07-24T19:23:25.163Z,27.34
2023-07-24T19:26:30.366Z,27.25
2023-07-24T19:29:34.148Z,27.40
2023-07-24T19:32:40.452Z,27.27
2023-07-24T19:35:48.444Z,27.21
2023-07-24T19:38:53.019Z,27.23
2023-07-24T19:41:55.667Z,27.14
2023-07-24T19:45:00.517Z,27.10
2023-07-24T19:48:04.680Z,26.98
2023-07-24T19:51:08.124Z,26.77
2023-07-24T19:54:11.602Z,26.70
2023-07-24T19:57:14.094Z,26.61
2023-07-24T20:00:16.669Z,26.59
2023-07-24T20:03:19.869Z,26.29
2023-07-24T20:06:22.441Z,26.31
2023-07-24T20:09:24.881Z,26.26
2023-07-24T20:12:27.432Z,26.07
2023-07-24T20:15:29.793Z,25.98
2023-07-24T20:18:32.179Z,25.97
2023-07-24T20:21:34.853Z,25.70
2023-07-24T20:24:37.346Z,25.79
2023-07-24T20:27:40.514Z,25.83
2023-07-24T20:30:43.174Z,25.50
2023-07-24T20:33:46.243Z,25.50
2023-07-24T20:36:49.793Z,25.52
2023-07-24T20:39:52.988Z,25.57
2023-07-24T20:42:56.676Z,25.53
2023-07-24T20:46:10.632Z,25.20
2023-07-24T20:49:13.459Z,25.26
2023-07-24T20:52:16.320Z,25.17
2023-07-24T20:55:19.015Z,25.13
2023-07-24T20:58:21.388Z,25.06
2023-07-24T21:01:24.436Z,24.99
2023-07-24T21:04:27.221Z,24.99
2023-07-24T21:07:32.918Z,24.93
2023-07-24T21:10:35.475Z,24.99
2023-07-24T21:13:38.056Z,24.93
2023-07-24T21:16:40.449Z,25.01
2023-07-24T21:19:43.250Z,24.92
2023-07-24T21:22:46.285Z,24.92
2023-07-24T21:25:57.004Z,24.87
2023-07-24T21:28:59.722Z,24.76
2023-07-24T21:32:02.985Z,24.82
2023-07-24T21:35:06.461Z,24.83
2023-07-24T21:38:09.884Z,24.94
2023-07-24T21:41:14.158Z,24.91
2023-07-24T21:44:17.294Z,24.82
2023-07-24T21:47:20.498Z,24.80
2023-07-24T21:50:22.940Z,24.75
2023-07-24T21:53:26.342Z,24.78
2023-07-24T21:56:29.407Z,24.76
2023-07-24T21:59:32.038Z,24.64
2023-07-24T22:02:34.959Z,24.58
2023-07-24T22:05:43.548Z,24.48
2023-07-24T22:08:50.482Z,24.52
2023-07-24T22:11:52.994Z,24.53
2023-07-24T22:14:55.387Z,24.40
2023-07-24T22:17:58.320Z,24.31
2023-07-24T22:21:01.364Z,24.25
2023-07-24T22:24:04.384Z,24.05
2023-07-24T22:27:07.563Z,24.02
2023-07-24T22:30:10.991Z,23.83
2023-07-24T22:33:13.594Z,23.78
2023-07-24T22:36:16.014Z,23.82
2023-07-24T22:39:18.384Z,23.81
2023-07-24T22:42:21.783Z,23.92
2023-07-24T22:45:26.497Z,23.86
2023-07-24T22:48:29.204Z,24.03
2023-07-24T22:51:32.264Z,24.09
2023-07-24T22:54:35.037Z,24.14
2023-07-24T22:57:37.530Z,24.23
2023-07-24T23:00:40.533Z,24.25
2023-07-24T23:03:49.922Z,24.12
2023-07-24T23:06:55.732Z,24.06
2023-07-24T23:09:58.184Z,23.97
2023-07-24T23:13:01.235Z,23.92
2023-07-24T23:16:05.061Z,23.60
2023-07-24T23:19:07.592Z,23.70
2023-07-24T23:22:10.630Z,23.62
2023-07-24T23:25:13.435Z,23.62
2023-07-24T23:28:16.303Z,23.40
2023-07-24T23:31:19.866Z,23.42
2023-07-24T23:34:22.779Z,23.48
2023-07-24T23:37:25.188Z,23.30
2023-07-24T23:40:28.266Z,23.14
2023-07-24T23:43:31.768Z,23.10
2023-07-24T23:46:34.168Z,22.88
2023-07-24T23:49:36.697Z,22.90
2023-07-24T23:52:39.490Z,22.97
2023-07-24T23:55:43.058Z,22.94
2023-07-24T23:58:46.358Z,22.91
